Time;durP1;ratioP1;P1;durP2;ratioP2;P2;SDS_P1;SDS_P2;PMS_P1;PMS_P2;Temp;Humidity;BMP_temperature;BMP_pressure;BME280_temperature;BME280_humidity;BME280_pressure;Samples;Min_cycle;Max_cycle;Signal;HPM_P1;HPM_P2
2023/08/15 00:01:58;;;;;;;25.88;14.05;;;;;;;;;;5112544;28;20038;-83
2023/08/15 00:04:23;;;;;;;25.38;13.77;;;;;;;;;;5095782;28;20032;-83
2023/08/15 00:06:49;;;;;;;28.85;14.35;;;;;;;;;;5112769;28;20027;-83
2023/08/15 00:09:15;;;;;;;26.58;13.88;;;;;;;;;;5113123;28;20036;-83
2023/08/15 00:11:40;;;;;;;29.27;13.82;;;;;;;;;;5095943;28;20364;-83
2023/08/15 00:14:05;;;;;;;27.67;14.07;;;;;;;;;;5098332;28;20034;-82
2023/08/15 00:16:31;;;;;;;22.85;13.57;;;;;;;;;;5099155;28;20035;-84
2023/08/15 00:18:56;;;;;;;30.85;14.07;;;;;;;;;;5117790;28;20024;-82
2023/08/15 00:21:22;;;;;;;30.65;14.10;;;;;;;;;;5082435;28;20024;-83
2023/08/15 00:23:48;;;;;;;29.55;14.02;;;;;;;;;;5116396;28;20445;-83
2023/08/15 00:26:13;;;;;;;27.77;14.10;;;;;;;;;;5116209;28;20028;-82
2023/08/15 00:28:39;;;;;;;29.13;13.60;;;;;;;;;;5116114;28;20043;-82
2023/08/15 00:31:04;;;;;;;33.47;13.52;;;;;;;;;;5117308;28;20041;-82
2023/08/15 00:33:30;;;;;;;27.55;13.88;;;;;;;;;;5099322;28;20364;-82
2023/08/15 00:35:55;;;;;;;29.95;13.57;;;;;;;;;;5117535;28;20032;-84
2023/08/15 00:38:21;;;;;;;28.15;14.93;;;;;;;;;;5116011;28;20067;-84
2023/08/15 00:40:46;;;;;;;28.92;13.65;;;;;;;;;;5098928;28;20042;-84
2023/08/15 00:43:11;;;;;;;26.35;13.55;;;;;;;;;;5117173;28;20456;-84
2023/08/15 00:45:40;;;;;;;27.58;13.65;;;;;;;;;;5115536;28;20035;-83
2023/08/15 00:48:08;;;;;;;30.35;13.52;;;;;;;;;;5081799;28;20034;-84
2023/08/15 00:50:34;;;;;;;32.17;15.60;;;;;;;;;;5098921;28;20032;-84
2023/08/15 00:53:00;;;;;;;30.45;14.35;;;;;;;;;;5098720;28;20418;-83
2023/08/15 00:55:25;;;;;;;30.25;13.88;;;;;;;;;;5132893;27;20030;-83
2023/08/15 00:57:51;;;;;;;41.75;14.13;;;;;;;;;;5098791;28;20020;-83
2023/08/15 01:00:16;;;;;;;33.05;13.75;;;;;;;;;;5098790;28;20020;-84
2023/08/15 01:02:42;;;;;;;35.10;13.88;;;;;;;;;;5081822;28;20376;-83
2023/08/15 01:05:08;;;;;;;25.80;14.20;;;;;;;;;;5098462;28;20039;-83
2023/08/15 01:07:34;;;;;;;27.17;14.60;;;;;;;;;;5098459;28;20035;-84
2023/08/15 01:09:59;;;;;;;37.83;14.05;;;;;;;;;;5115226;28;20123;-84
2023/08/15 01:12:55;;;;;;;35.38;14.20;;;;;;;;;;5115569;28;20031;-84
2023/08/15 01:15:28;;;;;;;26.70;14.32;;;;;;;;;;5101010;28;20108;-84
2023/08/15 01:18:04;;;;;;;32.85;13.82;;;;;;;;;;5132526;27;20036;-84
2023/08/15 01:20:35;;;;;;;34.78;14.23;;;;;;;;;;5098487;28;20444;-84
2023/08/15 01:23:01;;;;;;;31.90;13.95;;;;;;;;;;5132519;27;20036;-84
2023/08/15 01:25:30;;;;;;;27.00;13.68;;;;;;;;;;5114479;28;20122;-83
2023/08/15 01:27:56;;;;;;;36.38;14.73;;;;;;;;;;5115294;28;20722;-83
2023/08/15 01:30:21;;;;;;;34.45;13.80;;;;;;;;;;5114889;28;20429;-84
2023/08/15 01:33:00;;;;;;;30.50;14.23;;;;;;;;;;5116451;28;20041;-84
2023/08/15 01:35:36;;;;;;;28.63;14.15;;;;;;;;;;5116073;27;20032;-84
2023/08/15 01:38:07;;;;;;;29.63;13.95;;;;;;;;;;5116499;28;20046;-84
2023/08/15 01:40:34;;;;;;;27.77;13.73;;;;;;;;;;5115865;27;20023;-83
2023/08/15 01:43:00;;;;;;;29.77;13.75;;;;;;;;;;5131855;27;20020;-84
2023/08/15 01:45:25;;;;;;;25.42;13.40;;;;;;;;;;5097943;28;20428;-82
2023/08/15 01:47:51;;;;;;;33.90;14.38;;;;;;;;;;5097260;28;20031;-83
2023/08/15 01:50:16;;;;;;;30.20;14.10;;;;;;;;;;5115888;28;20023;-83
2023/08/15 01:52:42;;;;;;;28.52;14.63;;;;;;;;;;5115678;28;20028;-82
2023/08/15 01:55:08;;;;;;;29.15;14.35;;;;;;;;;;5080885;28;20024;-83
2023/08/15 01:57:33;;;;;;;31.13;14.75;;;;;;;;;;5115689;28;20038;-83
2023/08/15 02:00:01;;;;;;;37.65;14.75;;;;;;;;;;5114657;28;20028;-83
2023/08/15 02:02:27;;;;;;;27.95;14.20;;;;;;;;;;5115653;28;20023;-83
2023/08/15 02:04:52;;;;;;;34.53;15.18;;;;;;;;;;5114333;28;20372;-83
2023/08/15 02:07:18;;;;;;;33.92;14.35;;;;;;;;;;5114263;28;20503;-83
2023/08/15 02:09:43;;;;;;;30.40;14.85;;;;;;;;;;5114373;28;20027;-82
2023/08/15 02:12:09;;;;;;;35.20;14.75;;;;;;;;;;5115190;28;20035;-82
2023/08/15 02:14:34;;;;;;;28.73;14.05;;;;;;;;;;5114567;28;20080;-82
2023/08/15 02:16:59;;;;;;;28.17;14.27;;;;;;;;;;5115401;28;20027;-83
2023/08/15 02:19:25;;;;;;;31.48;14.32;;;;;;;;;;5115746;28;20562;-82
2023/08/15 02:21:51;;;;;;;32.38;14.27;;;;;;;;;;5148617;27;20028;-83
2023/08/15 02:24:16;;;;;;;30.33;14.55;;;;;;;;;;5115668;28;20034;-82
2023/08/15 02:26:42;;;;;;;24.02;14.30;;;;;;;;;;5096794;28;20045;-83
2023/08/15 02:29:07;;;;;;;26.10;14.05;;;;;;;;;;5097044;28;20369;-83
2023/08/15 02:31:33;;;;;;;33.30;14.40;;;;;;;;;;5080138;28;20433;-82
2023/08/15 02:33:58;;;;;;;34.88;14.32;;;;;;;;;;5079784;28;20050;-82
2023/08/15 02:36:23;;;;;;;31.20;14.27;;;;;;;;;;5113912;28;20118;-83
2023/08/15 02:38:49;;;;;;;29.10;14.52;;;;;;;;;;5096881;28;20023;-83
2023/08/15 02:41:14;;;;;;;27.35;15.32;;;;;;;;;;5096502;28;20023;-84
2023/08/15 02:43:40;;;;;;;29.92;14.50;;;;;;;;;;5096977;28;20024;-83
2023/08/15 02:46:06;;;;;;;26.23;14.70;;;;;;;;;;5114910;28;20043;-83
2023/08/15 02:48:31;;;;;;;28.23;15.18;;;;;;;;;;5096554;28;20046;-83
2023/08/15 02:50:57;;;;;;;29.65;15.57;;;;;;;;;;5080058;28;20357;-84
2023/08/15 02:53:22;;;;;;;27.83;15.38;;;;;;;;;;5113570;28;20028;-83
2023/08/15 02:55:51;;;;;;;44.05;15.95;;;;;;;;;;5113676;28;20034;-83
2023/08/15 02:58:17;;;;;;;29.35;15.65;;;;;;;;;;5113832;28;20034;-83
2023/08/15 03:00:43;;;;;;;34.15;16.13;;;;;;;;;;5113456;28;20019;-83
2023/08/15 03:03:08;;;;;;;45.28;17.55;;;;;;;;;;5114702;28;20361;-84
2023/08/15 03:05:37;;;;;;;37.28;17.92;;;;;;;;;;5096456;28;20054;-84
2023/08/15 03:08:02;;;;;;;36.47;16.38;;;;;;;;;;5113410;28;20031;-83
2023/08/15 03:10:28;;;;;;;33.97;17.58;;;;;;;;;;5114840;28;20031;-83
2023/08/15 03:12:53;;;;;;;34.70;18.48;;;;;;;;;;5079654;28;20044;-83
2023/08/15 03:15:19;;;;;;;37.72;18.17;;;;;;;;;;5112593;28;20043;-82
2023/08/15 03:17:44;;;;;;;40.10;19.05;;;;;;;;;;5096530;28;20031;-83
2023/08/15 03:20:10;;;;;;;47.15;18.00;;;;;;;;;;5113262;28;20502;-83
2023/08/15 03:22:35;;;;;;;53.30;18.88;;;;;;;;;;5130541;28;20023;-83
2023/08/15 03:25:01;;;;;;;47.75;19.33;;;;;;;;;;5113254;28;20027;-84
2023/08/15 03:27:26;;;;;;;39.88;18.02;;;;;;;;;;5113161;28;20043;-84
2023/08/15 03:29:52;;;;;;;46.03;18.45;;;;;;;;;;5130426;28;20042;-84
2023/08/15 03:32:17;;;;;;;55.45;18.67;;;;;;;;;;5096449;28;20040;-84
2023/08/15 03:34:42;;;;;;;46.97;18.63;;;;;;;;;;5114416;28;20031;-83
2023/08/15 03:37:08;;;;;;;38.22;18.30;;;;;;;;;;5096167;28;20399;-84
2023/08/15 03:42:17;;;;;;;45.72;17.60;;;;;;;;;;5114213;28;20103;-83
2023/08/15 03:44:42;;;;;;;36.25;17.77;;;;;;;;;;5114178;28;20429;-83
2023/08/15 03:47:08;;;;;;;38.38;18.02;;;;;;;;;;5113064;28;20038;-83
2023/08/15 03:49:33;;;;;;;39.65;18.13;;;;;;;;;;5099164;28;20038;-83
2023/08/15 03:51:59;;;;;;;34.85;17.70;;;;;;;;;;5082993;28;20138;-83
2023/08/15 03:54:24;;;;;;;42.75;18.52;;;;;;;;;;5099763;28;20444;-84
2023/08/15 03:56:49;;;;;;;39.03;18.00;;;;;;;;;;5100110;28;20688;-83
2023/08/15 03:59:15;;;;;;;37.70;17.52;;;;;;;;;;5118204;28;20032;-83
2023/08/15 04:01:40;;;;;;;36.63;18.63;;;;;;;;;;5117973;28;20027;-83
2023/08/15 04:04:06;;;;;;;46.67;18.25;;;;;;;;;;5099936;28;20028;-83
2023/08/15 04:06:31;;;;;;;54.55;20.20;;;;;;;;;;5083385;28;20119;-82
2023/08/15 04:08:57;;;;;;;47.72;19.30;;;;;;;;;;5099390;28;20062;-82
2023/08/15 04:11:22;;;;;;;34.72;18.15;;;;;;;;;;5099632;28;20401;-83
2023/08/15 04:13:48;;;;;;;53.40;19.98;;;;;;;;;;5116809;28;20031;-84
2023/08/15 04:16:14;;;;;;;44.55;18.70;;;;;;;;;;5082676;28;20118;-84
2023/08/15 04:18:39;;;;;;;44.15;20.23;;;;;;;;;;5134100;27;20122;-84
2023/08/15 04:21:05;;;;;;;50.05;21.08;;;;;;;;;;5116437;28;20119;-84
2023/08/15 04:23:30;;;;;;;46.75;20.95;;;;;;;;;;5082508;28;20036;-81
2023/08/15 04:25:56;;;;;;;62.70;21.02;;;;;;;;;;5116447;28;20449;-83
2023/08/15 04:28:21;;;;;;;45.60;20.10;;;;;;;;;;5082557;28;20528;-82
2023/08/15 04:30:47;;;;;;;43.15;20.67;;;;;;;;;;5099589;28;20464;-83
2023/08/15 04:33:13;;;;;;;50.00;20.02;;;;;;;;;;5122291;28;20031;-84
2023/08/15 04:35:39;;;;;;;50.60;20.73;;;;;;;;;;5101998;28;20076;-84
2023/08/15 04:38:05;;;;;;;43.67;20.23;;;;;;;;;;5129782;28;20409;-83
2023/08/15 04:40:39;;;;;;;40.97;20.25;;;;;;;;;;5124238;28;20030;-83
2023/08/15 04:43:05;;;;;;;49.83;20.65;;;;;;;;;;5140912;28;20037;-83
2023/08/15 04:45:30;;;;;;;51.63;19.58;;;;;;;;;;5140418;28;20016;-83
2023/08/15 04:47:56;;;;;;;45.53;19.23;;;;;;;;;;5118782;28;20028;-83
2023/08/15 04:50:21;;;;;;;47.63;19.65;;;;;;;;;;5129745;28;20045;-84
2023/08/15 04:52:47;;;;;;;49.63;21.10;;;;;;;;;;5127795;28;20055;-84
2023/08/15 04:55:13;;;;;;;46.40;19.90;;;;;;;;;;5116578;28;20114;-84
2023/08/15 04:57:39;;;;;;;50.53;20.42;;;;;;;;;;5116347;28;20019;-84
2023/08/15 05:00:08;;;;;;;43.33;18.85;;;;;;;;;;5098657;28;20038;-84
2023/08/15 05:02:37;;;;;;;50.80;20.42;;;;;;;;;;5116114;28;20024;-83
2023/08/15 05:05:06;;;;;;;46.22;20.35;;;;;;;;;;5133343;27;20031;-84
2023/08/15 05:07:32;;;;;;;48.65;21.42;;;;;;;;;;5133107;27;20028;-84
2023/08/15 05:09:58;;;;;;;51.88;21.70;;;;;;;;;;5133012;27;20100;-84
2023/08/15 05:12:23;;;;;;;53.25;22.45;;;;;;;;;;5116735;28;20453;-85
2023/08/15 05:14:49;;;;;;;68.22;25.08;;;;;;;;;;5116965;28;20444;-84
2023/08/15 05:17:14;;;;;;;72.22;28.60;;;;;;;;;;5116570;28;20028;-84
2023/08/15 05:19:39;;;;;;;67.15;22.80;;;;;;;;;;5081857;28;20101;-83
2023/08/15 05:22:05;;;;;;;63.00;24.33;;;;;;;;;;5115587;28;20459;-84
2023/08/15 05:24:30;;;;;;;51.30;21.75;;;;;;;;;;5098724;28;20027;-84
2023/08/15 05:26:56;;;;;;;62.13;21.85;;;;;;;;;;5081425;28;20043;-84
2023/08/15 05:29:21;;;;;;;41.70;20.00;;;;;;;;;;5098305;28;20036;-84
2023/08/15 05:31:46;;;;;;;62.42;21.70;;;;;;;;;;5115351;28;20453;-84
2023/08/15 05:34:12;;;;;;;52.28;21.08;;;;;;;;;;5098362;28;20028;-84
2023/08/15 05:36:37;;;;;;;43.03;20.95;;;;;;;;;;5114839;28;20134;-84
2023/08/15 05:39:04;;;;;;;57.47;22.35;;;;;;;;;;5115328;28;20118;-84
2023/08/15 05:41:30;;;;;;;55.05;20.80;;;;;;;;;;5098483;28;20034;-85
2023/08/15 05:43:56;;;;;;;51.28;21.05;;;;;;;;;;5149408;27;20024;-82
2023/08/15 05:46:21;;;;;;;41.92;20.63;;;;;;;;;;5114778;28;20031;-82
2023/08/15 05:48:47;;;;;;;59.28;23.77;;;;;;;;;;5114785;28;20088;-82
2023/08/15 05:51:12;;;;;;;50.53;23.40;;;;;;;;;;5098311;28;20024;-83
2023/08/15 05:53:37;;;;;;;46.40;21.95;;;;;;;;;;5114865;28;20452;-82
2023/08/15 05:56:03;;;;;;;43.20;21.42;;;;;;;;;;5115786;28;20085;-84
2023/08/15 05:58:28;;;;;;;53.05;21.30;;;;;;;;;;5116181;28;20032;-82
2023/08/15 06:00:54;;;;;;;60.50;21.90;;;;;;;;;;5115817;28;20077;-83
2023/08/15 06:03:20;;;;;;;52.30;21.67;;;;;;;;;;5116208;28;20024;-83
2023/08/15 06:05:45;;;;;;;54.83;21.88;;;;;;;;;;5097074;28;20089;-82
2023/08/15 06:08:11;;;;;;;52.25;22.25;;;;;;;;;;5080713;28;20028;-82
2023/08/15 06:10:37;;;;;;;72.38;20.13;;;;;;;;;;5097032;28;20032;-82
2023/08/15 06:13:02;;;;;;;39.90;19.13;;;;;;;;;;5115543;28;20090;-83
2023/08/15 06:15:28;;;;;;;43.42;18.63;;;;;;;;;;5115479;28;20053;-84
2023/08/15 06:17:53;;;;;;;50.30;19.52;;;;;;;;;;5097446;28;20084;-84
2023/08/15 06:20:19;;;;;;;50.85;18.80;;;;;;;;;;5114489;28;20038;-84
2023/08/15 06:22:45;;;;;;;38.72;19.48;;;;;;;;;;5097253;28;20028;-84
2023/08/15 06:25:10;;;;;;;36.33;18.38;;;;;;;;;;5114339;28;20067;-84
2023/08/15 06:27:35;;;;;;;41.17;17.98;;;;;;;;;;5096939;28;20050;-84
2023/08/15 06:30:01;;;;;;;43.50;18.65;;;;;;;;;;5097273;28;20024;-83
2023/08/15 06:32:27;;;;;;;57.97;19.10;;;;;;;;;;5097133;28;20031;-83
2023/08/15 06:34:52;;;;;;;56.63;24.35;;;;;;;;;;5079938;28;20143;-83
2023/08/15 06:37:18;;;;;;;49.70;19.88;;;;;;;;;;5097176;28;20027;-83
2023/08/15 06:39:43;;;;;;;45.53;18.88;;;;;;;;;;5096985;28;20027;-83
2023/08/15 06:42:10;;;;;;;41.38;18.75;;;;;;;;;;5114085;28;20027;-84
2023/08/15 06:44:36;;;;;;;40.85;19.70;;;;;;;;;;5097626;28;20394;-84
2023/08/15 06:47:01;;;;;;;44.25;19.67;;;;;;;;;;5096749;28;20080;-83
2023/08/15 06:49:27;;;;;;;38.50;19.23;;;;;;;;;;5096711;28;20035;-84
2023/08/15 06:51:52;;;;;;;46.35;19.10;;;;;;;;;;5096678;28;20033;-83
2023/08/15 06:54:17;;;;;;;36.83;19.23;;;;;;;;;;5113735;28;20070;-83
2023/08/15 06:56:43;;;;;;;43.70;21.63;;;;;;;;;;5113901;28;20146;-83
2023/08/15 06:59:08;;;;;;;36.55;19.45;;;;;;;;;;5113847;28;20031;-83
2023/08/15 07:01:34;;;;;;;44.42;20.00;;;;;;;;;;5113511;28;20027;-83
2023/08/15 07:03:59;;;;;;;54.05;21.40;;;;;;;;;;5113206;28;20039;-84
2023/08/15 07:06:25;;;;;;;46.40;22.00;;;;;;;;;;5113622;28;20702;-83
2023/08/15 07:08:50;;;;;;;71.40;25.50;;;;;;;;;;5113491;28;20028;-83
2023/08/15 07:11:16;;;;;;;64.85;26.10;;;;;;;;;;5113367;28;20036;-83
2023/08/15 07:13:41;;;;;;;60.15;25.83;;;;;;;;;;5147521;27;20034;-83
2023/08/15 07:16:06;;;;;;;63.00;27.08;;;;;;;;;;5113566;28;20367;-83
2023/08/15 07:18:32;;;;;;;62.85;26.52;;;;;;;;;;5147872;27;20437;-83
2023/08/15 07:20:59;;;;;;;59.35;27.17;;;;;;;;;;5096324;28;20112;-83
2023/08/15 07:23:25;;;;;;;55.70;27.25;;;;;;;;;;5098068;28;20057;-83
2023/08/15 07:25:50;;;;;;;60.00;26.10;;;;;;;;;;5117720;28;20415;-84
2023/08/15 07:28:16;;;;;;;55.05;24.77;;;;;;;;;;5117334;28;20044;-83
2023/08/15 07:30:45;;;;;;;66.72;24.88;;;;;;;;;;5100635;28;20063;-83
2023/08/15 07:33:10;;;;;;;53.90;25.80;;;;;;;;;;5100915;28;20038;-84
2023/08/15 07:35:36;;;;;;;61.65;23.92;;;;;;;;;;5100367;28;20369;-83
2023/08/15 07:38:01;;;;;;;48.40;22.05;;;;;;;;;;5100264;28;20035;-84
2023/08/15 07:40:27;;;;;;;47.25;22.77;;;;;;;;;;5100540;28;20038;-84
2023/08/15 07:42:54;;;;;;;47.10;23.23;;;;;;;;;;5117227;28;20027;-84
2023/08/15 07:45:20;;;;;;;56.42;27.30;;;;;;;;;;5116693;28;20164;-85
2023/08/15 07:47:51;;;;;;;62.60;32.47;;;;;;;;;;5134323;27;20376;-83
2023/08/15 07:50:25;;;;;;;53.97;25.02;;;;;;;;;;5100840;28;20019;-82
2023/08/15 07:52:51;;;;;;;42.10;18.75;;;;;;;;;;5100316;28;20119;-83
2023/08/15 07:55:16;;;;;;;34.25;17.58;;;;;;;;;;5099804;28;20075;-83
2023/08/15 07:57:45;;;;;;;31.00;15.70;;;;;;;;;;5118309;28;20039;-83
2023/08/15 08:00:14;;;;;;;35.15;16.17;;;;;;;;;;5083780;28;20054;-84
2023/08/15 08:02:40;;;;;;;27.10;14.73;;;;;;;;;;5100543;28;20027;-84
2023/08/15 08:05:07;;;;;;;20.73;13.13;;;;;;;;;;5099874;28;20530;-84
2023/08/15 08:07:36;;;;;;;23.60;12.57;;;;;;;;;;5100338;28;20062;-83
2023/08/15 08:10:02;;;;;;;24.33;12.30;;;;;;;;;;5133836;27;20481;-84
2023/08/15 08:12:28;;;;;;;21.73;12.40;;;;;;;;;;5116572;28;20051;-84
2023/08/15 08:14:53;;;;;;;23.40;11.88;;;;;;;;;;5116344;28;20096;-84
2023/08/15 08:17:19;;;;;;;17.95;11.85;;;;;;;;;;5116709;28;20356;-83
2023/08/15 08:19:44;;;;;;;19.17;11.15;;;;;;;;;;5117777;28;20372;-84
2023/08/15 08:22:10;;;;;;;18.58;11.93;;;;;;;;;;5099761;28;20020;-84
2023/08/15 08:24:35;;;;;;;18.05;11.90;;;;;;;;;;5099815;28;20031;-84
2023/08/15 08:27:00;;;;;;;17.42;10.80;;;;;;;;;;5099552;28;20066;-84
2023/08/15 08:29:26;;;;;;;15.60;10.98;;;;;;;;;;5099076;28;20131;-84
2023/08/15 08:31:51;;;;;;;17.20;10.15;;;;;;;;;;5116237;28;20063;-84
2023/08/15 08:34:17;;;;;;;16.08;10.65;;;;;;;;;;5115881;28;20043;-84
2023/08/15 08:36:42;;;;;;;16.83;10.75;;;;;;;;;;5082547;28;20023;-84
2023/08/15 08:39:08;;;;;;;19.63;10.70;;;;;;;;;;5116417;28;20027;-84
2023/08/15 08:41:37;;;;;;;15.63;9.95;;;;;;;;;;5099367;28;20479;-84
2023/08/15 08:44:03;;;;;;;17.20;10.10;;;;;;;;;;5099304;28;20361;-84
2023/08/15 08:46:29;;;;;;;19.40;10.35;;;;;;;;;;5116098;28;20020;-84
2023/08/15 08:48:58;;;;;;;15.52;9.60;;;;;;;;;;5115991;28;20019;-85
2023/08/15 08:51:24;;;;;;;19.53;8.70;;;;;;;;;;5115850;28;20081;-84
2023/08/15 08:53:49;;;;;;;15.82;8.02;;;;;;;;;;5115703;28;20445;-83
2023/08/15 08:56:17;;;;;;;14.98;8.00;;;;;;;;;;5098970;28;20116;-82
2023/08/15 08:58:42;;;;;;;16.08;9.45;;;;;;;;;;5098960;28;20486;-84
2023/08/15 09:01:08;;;;;;;9.88;7.90;;;;;;;;;;5082150;28;20028;-84
2023/08/15 09:03:33;;;;;;;9.48;7.57;;;;;;;;;;5098937;28;20027;-82
2023/08/15 09:05:59;;;;;;;13.63;8.15;;;;;;;;;;5099068;28;20026;-83
2023/08/15 09:08:24;;;;;;;13.88;7.50;;;;;;;;;;5098605;28;20356;-83
2023/08/15 09:10:50;;;;;;;14.70;7.30;;;;;;;;;;5098722;28;20472;-83
2023/08/15 09:13:21;;;;;;;14.48;7.75;;;;;;;;;;5098890;28;20496;-83
2023/08/15 09:15:59;;;;;;;10.10;7.05;;;;;;;;;;5116850;28;20024;-82
2023/08/15 09:18:32;;;;;;;12.48;7.38;;;;;;;;;;5083473;28;20675;-85
2023/08/15 09:20:57;;;;;;;15.18;7.03;;;;;;;;;;5082392;28;20019;-84
2023/08/15 09:23:23;;;;;;;14.00;6.90;;;;;;;;;;5098384;28;20420;-84
2023/08/15 09:25:53;;;;;;;13.15;6.97;;;;;;;;;;5098168;28;20023;-84
2023/08/15 09:28:19;;;;;;;11.18;6.78;;;;;;;;;;5098535;28;20047;-84
2023/08/15 09:30:51;;;;;;;10.57;6.30;;;;;;;;;;5115400;28;20019;-82
2023/08/15 09:33:17;;;;;;;10.77;6.97;;;;;;;;;;5081340;28;20032;-82
2023/08/15 09:35:42;;;;;;;9.82;6.82;;;;;;;;;;5098522;28;20030;-82
2023/08/15 09:38:08;;;;;;;10.75;6.85;;;;;;;;;;5115271;28;20035;-82
2023/08/15 09:40:34;;;;;;;8.57;6.75;;;;;;;;;;5115682;27;20448;-82
2023/08/15 09:42:59;;;;;;;9.10;6.90;;;;;;;;;;5115248;28;20031;-82
2023/08/15 09:45:25;;;;;;;10.80;6.45;;;;;;;;;;5114538;28;20427;-83
2023/08/15 09:47:50;;;;;;;11.68;6.97;;;;;;;;;;5097562;28;20032;-82
2023/08/15 09:50:16;;;;;;;10.52;6.93;;;;;;;;;;5116171;28;20027;-82
2023/08/15 09:52:42;;;;;;;12.73;7.50;;;;;;;;;;5114545;28;20457;-83
2023/08/15 09:55:11;;;;;;;9.80;6.57;;;;;;;;;;5097742;28;20034;-83
2023/08/15 09:57:37;;;;;;;12.57;6.97;;;;;;;;;;5098052;28;20066;-82
2023/08/15 10:00:04;;;;;;;9.18;6.47;;;;;;;;;;5097349;28;20038;-83
2023/08/15 10:02:29;;;;;;;11.30;6.93;;;;;;;;;;5097651;28;20130;-83
2023/08/15 10:05:02;;;;;;;12.18;6.85;;;;;;;;;;5097615;28;20118;-83
2023/08/15 10:07:31;;;;;;;10.48;6.10;;;;;;;;;;5114472;28;20035;-84
2023/08/15 10:09:57;;;;;;;12.15;6.28;;;;;;;;;;5080582;28;20039;-83
2023/08/15 10:12:22;;;;;;;8.57;6.22;;;;;;;;;;5080146;28;20518;-82
2023/08/15 10:14:48;;;;;;;8.57;6.40;;;;;;;;;;5097360;28;20028;-83
2023/08/15 10:17:13;;;;;;;11.20;6.45;;;;;;;;;;5097231;28;20058;-82
2023/08/15 10:19:38;;;;;;;11.80;6.65;;;;;;;;;;5097415;28;20028;-83
2023/08/15 10:22:04;;;;;;;10.00;6.35;;;;;;;;;;5080365;28;20134;-83
2023/08/15 10:24:30;;;;;;;10.43;6.60;;;;;;;;;;5080094;28;20096;-84
2023/08/15 10:26:56;;;;;;;12.10;6.20;;;;;;;;;;5096994;28;20027;-82
2023/08/15 10:29:22;;;;;;;9.70;6.65;;;;;;;;;;5097073;28;20368;-83
2023/08/15 10:31:49;;;;;;;9.65;6.28;;;;;;;;;;5080384;28;20366;-82
2023/08/15 10:34:16;;;;;;;11.30;6.88;;;;;;;;;;5097057;28;20048;-83
2023/08/15 10:36:42;;;;;;;12.45;6.50;;;;;;;;;;5079750;28;20032;-81
2023/08/15 10:39:08;;;;;;;7.15;6.45;;;;;;;;;;5079947;28;20450;-83
2023/08/15 10:41:34;;;;;;;9.07;6.28;;;;;;;;;;5113511;28;20062;-82
2023/08/15 10:44:02;;;;;;;13.15;6.85;;;;;;;;;;5097198;28;20032;-83
2023/08/15 10:46:29;;;;;;;10.88;6.53;;;;;;;;;;5115080;28;20437;-83
2023/08/15 10:48:55;;;;;;;11.73;6.30;;;;;;;;;;5096728;28;20027;-82
2023/08/15 10:51:25;;;;;;;10.98;6.70;;;;;;;;;;5113493;28;20042;-83
2023/08/15 10:53:57;;;;;;;8.18;6.45;;;;;;;;;;5096754;28;20436;-83
2023/08/15 10:56:28;;;;;;;16.42;6.20;;;;;;;;;;5115285;28;20341;-83
2023/08/15 10:58:54;;;;;;;15.27;6.47;;;;;;;;;;5113559;28;20028;-83
2023/08/15 11:01:24;;;;;;;9.88;6.13;;;;;;;;;;5097009;28;20494;-83
2023/08/15 11:03:51;;;;;;;8.60;6.57;;;;;;;;;;5113709;28;20429;-82
2023/08/15 11:06:16;;;;;;;10.82;6.85;;;;;;;;;;5114846;28;20076;-82
2023/08/15 11:08:43;;;;;;;13.65;7.25;;;;;;;;;;5096436;28;20562;-83
2023/08/15 11:11:09;;;;;;;10.90;6.93;;;;;;;;;;5096550;28;20034;-83
2023/08/15 11:13:39;;;;;;;9.13;6.68;;;;;;;;;;5097000;28;20039;-83
2023/08/15 11:16:04;;;;;;;;;;;;;;;;;;5096870;28;20410;-82
2023/08/15 11:18:30;;;;;;;11.98;7.38;;;;;;;;;;5113521;28;19908;-84
2023/08/15 11:20:55;;;;;;;11.73;7.50;;;;;;;;;;5096220;28;20027;-83
2023/08/15 11:23:21;;;;;;;11.90;7.95;;;;;;;;;;5079235;28;20024;-84
2023/08/15 11:25:46;;;;;;;13.10;7.50;;;;;;;;;;5096552;28;20046;-84
2023/08/15 11:28:12;;;;;;;11.68;8.10;;;;;;;;;;5096135;28;20142;-83
2023/08/15 11:30:37;;;;;;;13.50;7.95;;;;;;;;;;5095892;28;20042;-83
2023/08/15 11:33:03;;;;;;;10.95;7.40;;;;;;;;;;5096094;28;20076;-83
2023/08/15 11:35:28;;;;;;;11.90;8.02;;;;;;;;;;5113099;28;20024;-83
2023/08/15 11:37:54;;;;;;;14.73;7.93;;;;;;;;;;5079004;28;20020;-83
2023/08/15 11:40:19;;;;;;;12.10;8.48;;;;;;;;;;5096068;28;20020;-83
2023/08/15 11:42:45;;;;;;;13.52;7.78;;;;;;;;;;5114372;28;20019;-83
2023/08/15 11:45:17;;;;;;;14.35;8.10;;;;;;;;;;5096265;28;20061;-83
2023/08/15 11:48:00;;;;;;;17.85;7.88;;;;;;;;;;5096961;28;20034;-83
2023/08/15 11:50:27;;;;;;;13.88;8.15;;;;;;;;;;5095944;28;20397;-82
2023/08/15 11:52:53;;;;;;;12.20;7.78;;;;;;;;;;5095831;28;20024;-84
2023/08/15 11:55:18;;;;;;;9.57;7.97;;;;;;;;;;5095998;28;20092;-85
2023/08/15 11:57:44;;;;;;;10.00;7.32;;;;;;;;;;5095926;28;20031;-81
2023/08/15 12:00:11;;;;;;;12.90;7.18;;;;;;;;;;5113029;28;20023;-81
2023/08/15 12:02:41;;;;;;;13.88;8.23;;;;;;;;;;5096205;28;20115;-81
2023/08/15 12:05:08;;;;;;;10.25;7.85;;;;;;;;;;5112938;28;20433;-81
2023/08/15 12:10:58;;;;;;;11.15;7.75;;;;;;;;;;5117755;28;20138;-82
2023/08/15 12:13:37;;;;;;;20.33;8.40;;;;;;;;;;5116740;28;20031;-83
2023/08/15 12:16:03;;;;;;;;;;;;;;;;;;5118199;28;20111;-82
2023/08/15 12:18:28;;;;;;;11.52;7.45;;;;;;;;;;5116620;28;20324;-82
2023/08/15 12:20:55;;;;;;;12.90;7.35;;;;;;;;;;5099370;28;20469;-82
2023/08/15 12:23:20;;;;;;;11.75;7.35;;;;;;;;;;5116641;28;20114;-82
2023/08/15 12:25:46;;;;;;;12.18;7.43;;;;;;;;;;5116506;28;20062;-82
2023/08/15 12:28:11;;;;;;;9.75;7.15;;;;;;;;;;5116128;28;20039;-83
2023/08/15 12:30:37;;;;;;;12.57;8.02;;;;;;;;;;5116366;28;20509;-83
2023/08/15 12:33:02;;;;;;;11.85;7.68;;;;;;;;;;5082379;28;20085;-82
2023/08/15 12:35:28;;;;;;;16.58;7.55;;;;;;;;;;5098823;28;20027;-82
2023/08/15 12:37:53;;;;;;;14.23;7.78;;;;;;;;;;5117283;28;20441;-82
2023/08/15 12:40:20;;;;;;;14.30;7.28;;;;;;;;;;5116014;28;20428;-82
2023/08/15 12:42:45;;;;;;;12.02;7.35;;;;;;;;;;5115850;28;20040;-82
2023/08/15 12:45:11;;;;;;;16.45;7.53;;;;;;;;;;5116431;28;20031;-82
2023/08/15 12:47:36;;;;;;;17.38;7.82;;;;;;;;;;5115962;28;20118;-83
2023/08/15 12:50:03;;;;;;;9.25;7.72;;;;;;;;;;5117065;27;20054;-83
2023/08/15 12:52:34;;;;;;;8.68;7.28;;;;;;;;;;5116984;28;20036;-83
2023/08/15 12:55:00;;;;;;;12.63;7.82;;;;;;;;;;5082143;28;20475;-83
2023/08/15 12:57:25;;;;;;;10.38;7.32;;;;;;;;;;5099075;28;20023;-83
2023/08/15 12:59:51;;;;;;;14.98;7.88;;;;;;;;;;5098808;28;20031;-83
2023/08/15 13:02:16;;;;;;;9.80;8.40;;;;;;;;;;5115722;28;20462;-83
2023/08/15 13:04:41;;;;;;;11.43;8.05;;;;;;;;;;5115454;28;20016;-82
2023/08/15 13:07:07;;;;;;;11.20;8.50;;;;;;;;;;5115686;28;20020;-83
2023/08/15 13:09:32;;;;;;;9.38;8.20;;;;;;;;;;5117063;28;20020;-83
2023/08/15 13:11:58;;;;;;;16.08;8.48;;;;;;;;;;5115645;28;20358;-83
2023/08/15 13:14:24;;;;;;;13.73;8.63;;;;;;;;;;5098547;28;20110;-83
2023/08/15 13:16:49;;;;;;;13.30;8.13;;;;;;;;;;5115407;28;20031;-82
2023/08/15 13:19:15;;;;;;;11.82;8.50;;;;;;;;;;5115339;28;20055;-83
2023/08/15 13:21:40;;;;;;;12.75;8.70;;;;;;;;;;5114033;28;20020;-83
2023/08/15 13:24:06;;;;;;;13.57;9.05;;;;;;;;;;5115363;28;20038;-83
2023/08/15 13:26:31;;;;;;;10.65;8.32;;;;;;;;;;5116758;28;20054;-83
2023/08/15 13:28:59;;;;;;;12.02;8.70;;;;;;;;;;5098201;28;20044;-83
2023/08/15 13:31:24;;;;;;;13.18;8.73;;;;;;;;;;5115286;28;20019;-84
2023/08/15 13:33:50;;;;;;;14.85;8.50;;;;;;;;;;5116396;28;20043;-84
2023/08/15 13:36:16;;;;;;;15.18;8.75;;;;;;;;;;5115290;28;20023;-82
2023/08/15 13:38:42;;;;;;;13.85;8.77;;;;;;;;;;5115434;28;20031;-83
2023/08/15 13:41:07;;;;;;;11.77;8.77;;;;;;;;;;5115186;28;20019;-83
2023/08/15 13:43:35;;;;;;;13.23;8.23;;;;;;;;;;5097909;28;20042;-82
2023/08/15 13:46:07;;;;;;;13.38;8.88;;;;;;;;;;5115037;28;20399;-82
2023/08/15 13:48:37;;;;;;;13.93;9.68;;;;;;;;;;5081379;28;20436;-83
2023/08/15 13:51:03;;;;;;;13.85;9.07;;;;;;;;;;5114936;28;20391;-83
2023/08/15 13:53:29;;;;;;;14.00;9.75;;;;;;;;;;5114664;28;20088;-82
2023/08/15 13:55:57;;;;;;;15.48;9.20;;;;;;;;;;5114855;28;20031;-82
2023/08/15 13:58:24;;;;;;;10.60;9.10;;;;;;;;;;5115801;27;20027;-82
2023/08/15 14:00:49;;;;;;;14.45;9.40;;;;;;;;;;5114501;28;20023;-82
2023/08/15 14:03:14;;;;;;;16.58;9.25;;;;;;;;;;5097369;28;20080;-84
2023/08/15 14:05:40;;;;;;;14.65;9.95;;;;;;;;;;5097682;28;20092;-82
2023/08/15 14:08:06;;;;;;;17.58;9.30;;;;;;;;;;5097461;28;20416;-83
2023/08/15 14:10:32;;;;;;;15.07;8.95;;;;;;;;;;5114480;28;20545;-83
2023/08/15 14:12:58;;;;;;;16.60;9.95;;;;;;;;;;5080565;28;20499;-83
2023/08/15 14:15:24;;;;;;;13.57;9.20;;;;;;;;;;5080881;28;20062;-83
2023/08/15 14:17:50;;;;;;;14.82;9.55;;;;;;;;;;5097308;28;20019;-83
2023/08/15 14:20:15;;;;;;;14.18;9.30;;;;;;;;;;5097214;28;20023;-83
2023/08/15 14:22:41;;;;;;;13.52;9.55;;;;;;;;;;5114231;28;20030;-83
2023/08/15 14:25:06;;;;;;;13.57;9.85;;;;;;;;;;5115848;28;20027;-82